createdAt,value
2023-05-07T00:00:08.800Z,99270.81
2023-05-07T00:02:36.572Z,99270.59
2023-05-07T00:05:04.562Z,99273.34
2023-05-07T00:07:32.247Z,99276.38
2023-05-07T00:09:59.377Z,99268.84
2023-05-07T00:12:27.060Z,99273.19
2023-05-07T00:14:54.485Z,99277.44
2023-05-07T00:17:21.934Z,99285.75
2023-05-07T00:19:49.033Z,99284.00
2023-05-07T00:22:16.608Z,99277.94
2023-05-07T00:24:43.805Z,99277.78
2023-05-07T00:27:10.930Z,99276.38
2023-05-07T00:29:38.128Z,99286.91
2023-05-07T00:32:06.227Z,99285.69
2023-05-07T00:34:33.543Z,99288.53
2023-05-07T00:37:00.743Z,99286.88
2023-05-07T00:39:28.122Z,99292.59
2023-05-07T00:41:55.369Z,99283.16
2023-05-07T00:44:22.825Z,99285.13
2023-05-07T00:46:50.657Z,99292.88
2023-05-07T00:49:18.198Z,99293.69
2023-05-07T00:51:45.989Z,99289.59
2023-05-07T00:54:13.323Z,99290.63
2023-05-07T00:56:40.809Z,99288.81
2023-05-07T00:59:08.226Z,99286.78
2023-05-07T01:01:35.648Z,99283.50
2023-05-07T01:04:03.724Z,99283.38
2023-05-07T01:06:31.597Z,99288.41
2023-05-07T01:08:59.144Z,99281.53
2023-05-07T01:11:26.751Z,99286.03
2023-05-07T01:13:53.970Z,99291.78
2023-05-07T01:16:22.496Z,99286.50
2023-05-07T01:18:49.772Z,99280.72
2023-05-07T01:21:17.826Z,99282.13
2023-05-07T01:23:45.994Z,99276.19
2023-05-07T01:26:13.409Z,99274.25
2023-05-07T01:28:41.241Z,99275.13
2023-05-07T01:31:09.027Z,99269.22
2023-05-07T01:33:36.167Z,99270.44
2023-05-07T01:36:07.455Z,99272.53
2023-05-07T01:38:34.719Z,99269.69
2023-05-07T01:41:02.069Z,99278.59
2023-05-07T01:43:30.623Z,99268.50
2023-05-07T01:45:58.920Z,99267.72
2023-05-07T01:48:26.135Z,99271.72
2023-05-07T01:50:53.818Z,99272.13
2023-05-07T01:53:20.818Z,99264.88
2023-05-07T01:55:48.350Z,99267.69
2023-05-07T01:58:17.193Z,99264.47
2023-05-07T02:00:44.402Z,99265.69
2023-05-07T02:03:11.651Z,99266.47
2023-05-07T02:05:46.174Z,99272.50
2023-05-07T02:08:29.840Z,99271.84
2023-05-07T02:10:58.084Z,99277.63
2023-05-07T02:13:30.059Z,99269.66
2023-05-07T02:15:58.568Z,99259.56
2023-05-07T02:18:27.510Z,99262.22
2023-05-07T02:20:55.376Z,99266.84
2023-05-07T02:23:23.011Z,99267.03
2023-05-07T02:25:50.183Z,99264.69
2023-05-07T02:28:18.661Z,99267.38
2023-05-07T02:31:05.921Z,99260.16
2023-05-07T02:33:35.624Z,99263.50
2023-05-07T02:36:10.782Z,99267.03
2023-05-07T02:39:00.087Z,99265.03
2023-05-07T02:41:29.161Z,99263.53
2023-05-07T02:43:56.781Z,99263.63
2023-05-07T02:46:24.006Z,99266.38
2023-05-07T02:48:59.869Z,99264.00
2023-05-07T02:51:28.128Z,99260.63
2023-05-07T02:53:57.982Z,99264.72
2023-05-07T02:56:27.631Z,99253.03
2023-05-07T02:58:55.215Z,99263.47
2023-05-07T03:01:26.171Z,99264.19
2023-05-07T03:04:05.289Z,99246.66
2023-05-07T03:06:32.799Z,99258.59
2023-05-07T03:08:59.955Z,99251.25
2023-05-07T03:11:27.298Z,99254.59
2023-05-07T03:13:54.374Z,99262.03
2023-05-07T03:16:22.821Z,99258.06
2023-05-07T03:18:50.289Z,99254.00
2023-05-07T03:21:17.491Z,99250.75
2023-05-07T03:23:44.988Z,99249.00
2023-05-07T03:26:12.010Z,99245.75
2023-05-07T03:28:39.428Z,99248.47
2023-05-07T03:31:11.283Z,99244.56
2023-05-07T03:33:40.539Z,99240.78
2023-05-07T03:36:08.156Z,99244.66
2023-05-07T03:38:35.587Z,99238.28
2023-05-07T03:41:03.330Z,99226.94
2023-05-07T03:43:30.820Z,99228.97
2023-05-07T03:46:05.648Z,99223.91
2023-05-07T03:48:32.817Z,99217.59
2023-05-07T03:51:00.279Z,99214.34
2023-05-07T03:53:32.046Z,99217.38
2023-05-07T03:55:59.279Z,99218.00
2023-05-07T03:58:26.589Z,99214.47
2023-05-07T04:00:56.945Z,99209.78
2023-05-07T04:03:28.250Z,99209.25
2023-05-07T04:05:58.951Z,99204.09
2023-05-07T04:08:26.681Z,99213.25
2023-05-07T04:10:59.308Z,99202.75
2023-05-07T04:13:31.110Z,99206.81
2023-05-07T04:16:00.109Z,99204.16
2023-05-07T04:18:28.495Z,99200.28
2023-05-07T04:20:56.053Z,99197.06
2023-05-07T04:23:23.276Z,99197.41
2023-05-07T04:25:51.513Z,99187.56
2023-05-07T04:28:39.173Z,99189.19
2023-05-07T04:31:07.865Z,99189.69
2023-05-07T04:33:37.228Z,99179.38
2023-05-07T04:36:06.440Z,99179.88
2023-05-07T04:38:39.355Z,99177.91
2023-05-07T04:41:07.336Z,99178.94
2023-05-07T04:43:38.787Z,99167.06
2023-05-07T04:46:06.205Z,99165.84
2023-05-07T04:48:33.654Z,99169.28
2023-05-07T04:51:02.421Z,99164.31
2023-05-07T04:53:29.917Z,99165.59
2023-05-07T04:55:58.664Z,99156.75
2023-05-07T04:58:32.988Z,99160.75
2023-05-07T05:01:01.456Z,99145.59
2023-05-07T05:03:29.473Z,99146.91
2023-05-07T05:06:00.756Z,99147.72
2023-05-07T05:08:32.381Z,99137.63
2023-05-07T05:11:03.025Z,99134.53
2023-05-07T05:13:32.545Z,99133.81
2023-05-07T05:16:03.298Z,99122.34
2023-05-07T05:18:33.807Z,99116.44
2023-05-07T05:21:00.962Z,99117.38
2023-05-07T05:23:29.207Z,99110.97
2023-05-07T05:25:58.773Z,99109.91
2023-05-07T05:28:29.079Z,99107.59
2023-05-07T05:30:57.278Z,99105.66
2023-05-07T05:33:26.567Z,99095.06
2023-05-07T05:35:55.310Z,99096.50
2023-05-07T05:38:22.756Z,99089.88
2023-05-07T05:40:50.695Z,99082.81
2023-05-07T05:43:18.942Z,99078.50
2023-05-07T05:45:46.041Z,99077.78
2023-05-07T05:48:13.777Z,99073.28
2023-05-07T05:50:43.018Z,99059.69
2023-05-07T05:53:10.584Z,99055.50
2023-05-07T05:55:38.468Z,99054.06
2023-05-07T05:58:06.191Z,99055.59
2023-05-07T06:00:37.132Z,99053.13
2023-05-07T06:03:06.918Z,99052.09
2023-05-07T06:05:35.095Z,99045.25
2023-05-07T06:08:02.648Z,99045.69
2023-05-07T06:10:33.451Z,99029.13
2023-05-07T06:13:01.517Z,99038.41
2023-05-07T06:15:31.229Z,99031.56
2023-05-07T06:18:04.273Z,99026.94
2023-05-07T06:20:31.691Z,99017.91
2023-05-07T06:23:01.100Z,99009.94
2023-05-07T06:25:29.144Z,99011.19
2023-05-07T06:27:56.485Z,99005.41
2023-05-07T06:30:25.842Z,99010.69
2023-05-07T06:32:53.098Z,99007.31
2023-05-07T06:35:20.970Z,98999.84
2023-05-07T06:37:48.424Z,98995.75
2023-05-07T06:40:20.795Z,98997.66
2023-05-07T06:42:49.291Z,98984.09
2023-05-07T06:45:29.652Z,98982.22
2023-05-07T06:47:58.202Z,98994.97
2023-05-07T06:50:26.611Z,98982.63
2023-05-07T06:52:57.798Z,98977.84
2023-05-07T06:55:26.754Z,98975.50
2023-05-07T06:57:55.370Z,98969.59
2023-05-07T07:00:24.738Z,98971.03
2023-05-07T07:02:56.062Z,98970.28
2023-05-07T07:05:26.387Z,98963.75
2023-05-07T07:07:54.098Z,98969.13
2023-05-07T07:10:25.151Z,98962.47
2023-05-07T07:12:54.819Z,98959.03
2023-05-07T07:15:23.018Z,98961.59
2023-05-07T07:17:51.463Z,98960.16
2023-05-07T07:20:18.583Z,98946.06
2023-05-07T07:22:47.583Z,98945.88
2023-05-07T07:25:16.877Z,98940.84
2023-05-07T07:27:44.455Z,98942.91
2023-05-07T07:30:13.425Z,98948.84
2023-05-07T07:32:43.824Z,98929.75
2023-05-07T07:35:11.126Z,98932.78
2023-05-07T07:37:39.873Z,98925.34
2023-05-07T07:40:07.936Z,98921.97
2023-05-07T07:42:36.256Z,98918.16
2023-05-07T07:45:04.180Z,98911.16
2023-05-07T07:47:34.869Z,98919.41
2023-05-07T07:50:03.157Z,98922.19
2023-05-07T07:52:30.418Z,98912.06
2023-05-07T07:54:58.024Z,98900.63
2023-05-07T07:57:26.066Z,98898.69
2023-05-07T07:59:53.836Z,98899.09
2023-05-07T08:02:21.858Z,98891.13
2023-05-07T08:04:50.602Z,98892.75
2023-05-07T08:07:21.523Z,98891.16
2023-05-07T08:09:49.504Z,98891.88
2023-05-07T08:12:20.783Z,98877.06
2023-05-07T08:14:49.332Z,98875.56
2023-05-07T08:17:17.233Z,98873.13
2023-05-07T08:19:45.725Z,98867.38
2023-05-07T08:22:14.835Z,98859.19
2023-05-07T08:24:42.422Z,98862.06
2023-05-07T08:27:10.351Z,98865.66
2023-05-07T08:29:38.968Z,98863.38
2023-05-07T08:32:06.837Z,98871.53
2023-05-07T08:34:34.317Z,98864.53
2023-05-07T08:37:04.938Z,98858.88
2023-05-07T08:39:33.142Z,98863.75
2023-05-07T08:42:02.872Z,98851.81
2023-05-07T08:44:31.699Z,98843.53
2023-05-07T08:46:59.286Z,98860.34
2023-05-07T08:49:28.406Z,98852.00
2023-05-07T08:51:56.851Z,98847.09
2023-05-07T08:54:25.320Z,98834.25
2023-05-07T08:56:52.580Z,98840.19
2023-05-07T08:59:20.193Z,98844.09
2023-05-07T09:01:48.173Z,98839.19
2023-05-07T09:04:16.312Z,98835.94
2023-05-07T09:06:44.767Z,98829.03
2023-05-07T09:09:19.472Z,98833.63
2023-05-07T09:11:46.927Z,98828.22
2023-05-07T09:14:16.978Z,98818.22
2023-05-07T09:16:47.148Z,98822.13
2023-05-07T09:19:14.969Z,98827.16
2023-05-07T09:21:46.067Z,98804.56
2023-05-07T09:24:16.363Z,98814.16
2023-05-07T09:26:44.173Z,98806.06
2023-05-07T09:29:12.477Z,98801.16
2023-05-07T09:31:41.060Z,98798.72
2023-05-07T09:34:11.940Z,98788.41
2023-05-07T09:36:42.282Z,98806.59
2023-05-07T09:39:09.564Z,98798.94
2023-05-07T09:41:44.993Z,98789.72
2023-05-07T09:44:19.510Z,98792.69
2023-05-07T09:46:54.403Z,98789.84
2023-05-07T09:49:27.902Z,98790.00
2023-05-07T09:52:02.026Z,98788.72
2023-05-07T09:54:32.218Z,98803.16
2023-05-07T09:57:03.258Z,98789.03
2023-05-07T09:59:32.397Z,98781.56
2023-05-07T10:02:04.173Z,98785.22
2023-05-07T10:04:35.390Z,98776.94
2023-05-07T10:07:03.379Z,98775.06
2023-05-07T10:09:31.386Z,98783.34
2023-05-07T10:11:59.317Z,98773.06
2023-05-07T10:14:26.505Z,98772.88
2023-05-07T10:16:53.767Z,98781.56
2023-05-07T10:19:21.740Z,98763.19
2023-05-07T10:21:57.800Z,98765.78
2023-05-07T10:24:28.392Z,98767.81
2023-05-07T10:26:56.580Z,98765.78
2023-05-07T10:29:32.272Z,98769.94
2023-05-07T10:32:22.885Z,98761.63
2023-05-07T10:34:52.156Z,98751.72
2023-05-07T10:37:19.618Z,98746.19
2023-05-07T10:39:46.868Z,98759.22
2023-05-07T10:42:15.012Z,98753.78
2023-05-07T10:44:48.646Z,98745.94
2023-05-07T10:47:23.294Z,98745.00
2023-05-07T10:50:06.408Z,98746.81
2023-05-07T10:52:38.990Z,98735.91
2023-05-07T10:55:20.710Z,98741.84
2023-05-07T10:57:56.524Z,98742.00
2023-05-07T11:03:03.636Z,98744.63
2023-05-07T11:05:38.839Z,98743.25
2023-05-07T11:08:16.329Z,98736.66
2023-05-07T11:11:04.777Z,98732.91
2023-05-07T11:13:52.605Z,98731.91
2023-05-07T11:16:43.122Z,98724.75
2023-05-07T11:19:53.049Z,98725.25
2023-05-07T11:22:40.559Z,98730.59
2023-05-07T11:25:20.489Z,98739.38
2023-05-07T11:27:53.665Z,98722.63
2023-05-07T11:30:20.922Z,98715.09
2023-05-07T11:32:49.329Z,98723.72
2023-05-07T11:35:18.093Z,98724.66
2023-05-07T11:37:48.071Z,98725.94
2023-05-07T11:40:16.429Z,98723.97
2023-05-07T11:42:44.517Z,98725.94
2023-05-07T11:45:12.298Z,98727.69
2023-05-07T11:47:40.001Z,98728.50
2023-05-07T11:50:11.707Z,98721.75
2023-05-07T11:52:40.004Z,98715.25
2023-05-07T11:55:09.186Z,98724.63
2023-05-07T11:57:36.794Z,98725.25
2023-05-07T12:00:05.747Z,98722.78
2023-05-07T12:02:44.649Z,98721.47
2023-05-07T12:05:12.139Z,98725.16
2023-05-07T12:07:39.702Z,98724.97
2023-05-07T12:10:07.522Z,98719.25
2023-05-07T12:12:42.514Z,98723.44
2023-05-07T12:15:11.341Z,98716.91
2023-05-07T12:17:38.717Z,98716.72
2023-05-07T12:20:06.830Z,98714.56
2023-05-07T12:22:34.249Z,98717.69
2023-05-07T12:25:01.385Z,98719.13
2023-05-07T12:27:29.101Z,98715.88
2023-05-07T12:29:58.349Z,98718.25
2023-05-07T12:32:25.957Z,98714.25
2023-05-07T12:34:53.212Z,98709.34
2023-05-07T12:37:27.219Z,98721.00
2023-05-07T12:40:10.915Z,98719.66
2023-05-07T12:42:41.934Z,98716.78
2023-05-07T12:45:14.188Z,98719.66
2023-05-07T12:47:46.210Z,98724.72
2023-05-07T12:50:15.015Z,98721.47
2023-05-07T12:52:42.521Z,98719.13
2023-05-07T12:55:10.721Z,98727.16
2023-05-07T12:57:43.328Z,98716.44
2023-05-07T13:00:11.414Z,98722.31
2023-05-07T13:02:39.111Z,98727.38
2023-05-07T13:05:07.036Z,98718.19
2023-05-07T13:07:34.767Z,98726.81
2023-05-07T13:10:01.981Z,98729.97
2023-05-07T13:12:29.404Z,98725.44
2023-05-07T13:14:56.832Z,98727.56
2023-05-07T13:17:24.065Z,98726.88
2023-05-07T13:19:51.648Z,98731.72
2023-05-07T13:22:19.130Z,98737.34
2023-05-07T13:24:46.504Z,98743.28
2023-05-07T13:27:13.675Z,98746.41
2023-05-07T13:29:40.742Z,98752.31
2023-05-07T13:32:08.612Z,98753.84
2023-05-07T13:34:36.144Z,98751.22
2023-05-07T13:37:03.229Z,98749.19
2023-05-07T13:39:30.981Z,98748.75
2023-05-07T13:41:58.448Z,98755.97
2023-05-07T13:44:27.046Z,98756.34
2023-05-07T13:46:54.239Z,98760.84
2023-05-07T13:49:21.352Z,98757.59
2023-05-07T13:51:48.730Z,98763.44
2023-05-07T13:54:16.588Z,98759.66
2023-05-07T13:56:43.633Z,98766.03
2023-05-07T13:59:11.001Z,98765.50
2023-05-07T14:01:38.195Z,98769.94
2023-05-07T14:04:05.704Z,98768.88
2023-05-07T14:06:33.141Z,98769.69
2023-05-07T14:09:00.859Z,98776.06
2023-05-07T14:11:28.557Z,98768.94
2023-05-07T14:13:57.519Z,98773.34
2023-05-07T14:16:24.669Z,98776.66
2023-05-07T14:18:52.239Z,98775.34
2023-05-07T14:21:19.578Z,98775.41
2023-05-07T14:23:47.435Z,98782.84
2023-05-07T14:26:14.646Z,98778.78
2023-05-07T14:28:47.074Z,98779.09
2023-05-07T14:31:14.564Z,98783.25
2023-05-07T14:33:42.319Z,98779.19
2023-05-07T14:36:09.958Z,98779.50
2023-05-07T14:38:37.376Z,98783.88
2023-05-07T14:41:05.057Z,98778.44
2023-05-07T14:43:32.542Z,98788.03
2023-05-07T14:45:59.826Z,98783.13
2023-05-07T14:48:27.290Z,98785.63
2023-05-07T14:50:54.446Z,98787.81
2023-05-07T14:53:22.525Z,98784.53
2023-05-07T14:55:49.932Z,98783.47
2023-05-07T14:58:17.170Z,98786.50
2023-05-07T15:00:44.590Z,98785.94
2023-05-07T15:03:12.357Z,98791.97
2023-05-07T15:05:42.885Z,98780.47
2023-05-07T15:08:10.583Z,98788.66
2023-05-07T15:10:41.907Z,98792.47
2023-05-07T15:13:13.338Z,98791.34
2023-05-07T15:15:43.386Z,98794.34
2023-05-07T15:18:10.787Z,98782.28
2023-05-07T15:20:38.333Z,98780.94
2023-05-07T15:23:06.886Z,98784.75
2023-05-07T15:25:34.549Z,98789.41
2023-05-07T15:28:02.186Z,98783.94
2023-05-07T15:30:29.698Z,98786.41
2023-05-07T15:32:57.406Z,98785.31
2023-05-07T15:35:26.686Z,98782.28
2023-05-07T15:37:54.655Z,98784.47
2023-05-07T15:40:22.012Z,98773.28
2023-05-07T15:42:49.614Z,98785.03
2023-05-07T15:45:17.173Z,98778.97
2023-05-07T15:47:44.791Z,98780.06
2023-05-07T15:50:12.491Z,98779.47
2023-05-07T15:52:41.549Z,98790.13
2023-05-07T15:55:09.911Z,98782.94
2023-05-07T15:57:37.681Z,98784.00
2023-05-07T16:00:08.916Z,98772.22
2023-05-07T16:02:42.324Z,98779.53
2023-05-07T16:05:11.407Z,98774.59
2023-05-07T16:07:39.860Z,98776.22
2023-05-07T16:10:09.607Z,98772.59
2023-05-07T16:12:37.433Z,98774.50
2023-05-07T16:15:05.711Z,98773.66
2023-05-07T16:17:34.102Z,98777.47
2023-05-07T16:20:02.197Z,98772.78
2023-05-07T16:22:31.428Z,98770.03
2023-05-07T16:24:58.814Z,98764.50
2023-05-07T16:27:26.209Z,98764.47
2023-05-07T16:29:53.872Z,98767.94
2023-05-07T16:32:21.259Z,98762.41
2023-05-07T16:34:48.688Z,98768.66
2023-05-07T16:37:15.930Z,98769.47
2023-05-07T16:39:43.004Z,98767.00
2023-05-07T16:42:10.225Z,98771.91
2023-05-07T16:44:37.265Z,98770.25
2023-05-07T16:47:04.858Z,98770.16
2023-05-07T16:49:31.940Z,98771.16
2023-05-07T16:51:59.066Z,98776.19
2023-05-07T16:54:26.150Z,98773.72
2023-05-07T16:56:53.669Z,98780.81
2023-05-07T16:59:20.823Z,98786.50
2023-05-07T17:01:48.227Z,98782.06
2023-05-07T17:04:15.372Z,98784.34
2023-05-07T17:06:42.815Z,98789.38
2023-05-07T17:09:10.281Z,98787.66
2023-05-07T17:11:37.581Z,98784.47
2023-05-07T17:14:05.788Z,98785.03
2023-05-07T17:16:33.682Z,98777.47
2023-05-07T17:19:00.964Z,98785.44
2023-05-07T17:21:28.942Z,98776.94
2023-05-07T17:23:56.121Z,98778.91
2023-05-07T17:26:23.532Z,98779.75
2023-05-07T17:28:50.767Z,98775.34
2023-05-07T17:31:18.711Z,98772.88
2023-05-07T17:33:46.237Z,98768.47
2023-05-07T17:36:14.217Z,98766.94
2023-05-07T17:38:41.423Z,98772.72
2023-05-07T17:41:08.564Z,98770.31
2023-05-07T17:43:35.804Z,98770.03
2023-05-07T17:46:03.252Z,98768.00
2023-05-07T17:48:31.126Z,98774.75
2023-05-07T17:51:04.655Z,98773.78
2023-05-07T17:53:32.223Z,98760.06
2023-05-07T17:55:59.521Z,98763.81
2023-05-07T17:58:27.084Z,98750.34
2023-05-07T18:00:55.180Z,98763.13
2023-05-07T18:03:24.229Z,98759.56
2023-05-07T18:05:51.743Z,98759.44
2023-05-07T18:08:18.709Z,98753.13
2023-05-07T18:10:46.026Z,98757.63
2023-05-07T18:13:13.424Z,98758.94
2023-05-07T18:15:40.728Z,98755.84
2023-05-07T18:18:08.107Z,98751.13
2023-05-07T18:20:35.561Z,98754.25
2023-05-07T18:23:04.032Z,98745.19
2023-05-07T18:25:31.545Z,98749.69
2023-05-07T18:27:58.690Z,98749.56
2023-05-07T18:30:26.038Z,98751.91
2023-05-07T18:32:53.393Z,98759.09
2023-05-07T18:35:20.620Z,98754.91
2023-05-07T18:37:47.672Z,98755.06
2023-05-07T18:40:15.095Z,98753.69
2023-05-07T18:42:42.703Z,98745.88
2023-05-07T18:45:10.335Z,98754.53
2023-05-07T18:47:37.415Z,98752.72
2023-05-07T18:50:06.264Z,98746.66
2023-05-07T18:52:35.902Z,98748.47
2023-05-07T18:55:03.752Z,98754.63
2023-05-07T18:57:31.157Z,98752.66
2023-05-07T18:59:58.558Z,98753.13
2023-05-07T19:02:25.920Z,98748.31
2023-05-07T19:04:53.244Z,98746.31
2023-05-07T19:07:20.786Z,98734.69
2023-05-07T19:10:00.985Z,98748.50
2023-05-07T19:12:31.135Z,98749.34
2023-05-07T19:14:58.359Z,98750.66
2023-05-07T19:17:25.532Z,98748.66
2023-05-07T19:19:52.913Z,98742.88
2023-05-07T19:22:20.260Z,98743.63
2023-05-07T19:24:47.639Z,98744.63
2023-05-07T19:27:15.110Z,98755.13
2023-05-07T19:29:42.958Z,98753.16
2023-05-07T19:32:10.102Z,98749.38
2023-05-07T19:34:37.651Z,98748.22
2023-05-07T19:37:05.584Z,98744.34
2023-05-07T19:39:33.327Z,98755.66
2023-05-07T19:42:00.317Z,98743.16
2023-05-07T19:44:27.758Z,98745.31
2023-05-07T19:46:55.155Z,98744.88
2023-05-07T19:49:22.538Z,98746.06
2023-05-07T19:51:49.761Z,98751.16
2023-05-07T19:54:17.207Z,98744.00
2023-05-07T19:56:44.560Z,98747.53
2023-05-07T19:59:11.698Z,98739.88
2023-05-07T20:01:38.904Z,98743.41
2023-05-07T20:04:06.319Z,98740.09
2023-05-07T20:06:33.700Z,98742.25
2023-05-07T20:09:01.250Z,98745.69
2023-05-07T20:11:28.490Z,98742.63
2023-05-07T20:13:55.660Z,98747.47
2023-05-07T20:16:23.007Z,98740.88
2023-05-07T20:18:50.321Z,98738.88
2023-05-07T20:21:17.686Z,98749.63
2023-05-07T20:23:44.827Z,98753.16
2023-05-07T20:26:12.469Z,98758.22
2023-05-07T20:28:39.691Z,98754.09
2023-05-07T20:31:07.052Z,98751.03
2023-05-07T20:33:34.538Z,98753.03
2023-05-07T20:36:01.945Z,98743.81
2023-05-07T20:38:33.515Z,98755.41
2023-05-07T20:41:11.399Z,98758.72
2023-05-07T20:43:39.014Z,98754.69
2023-05-07T20:46:07.592Z,98754.72
2023-05-07T20:48:34.985Z,98762.13
2023-05-07T20:51:02.318Z,98766.50
2023-05-07T20:53:30.985Z,98759.78
2023-05-07T20:55:59.816Z,98756.72
2023-05-07T20:58:29.834Z,98766.16
2023-05-07T21:00:57.049Z,98759.75
2023-05-07T21:03:24.441Z,98761.53
2023-05-07T21:05:55.953Z,98758.13
2023-05-07T21:08:23.539Z,98761.28
2023-05-07T21:10:51.667Z,98754.56
2023-05-07T21:13:18.921Z,98758.81
2023-05-07T21:15:46.318Z,98759.06
2023-05-07T21:18:13.696Z,98764.22
2023-05-07T21:20:41.165Z,98760.09
2023-05-07T21:23:08.557Z,98756.56
2023-05-07T21:25:39.308Z,98758.22
2023-05-07T21:28:08.460Z,98755.38
2023-05-07T21:30:36.611Z,98758.19
2023-05-07T21:33:06.302Z,98753.25
2023-05-07T21:35:36.537Z,98758.06
2023-05-07T21:38:03.762Z,98759.00
2023-05-07T21:40:31.484Z,98759.69
2023-05-07T21:43:00.078Z,98759.94
2023-05-07T21:45:27.293Z,98757.09
2023-05-07T21:47:54.585Z,98751.81
2023-05-07T21:50:22.293Z,98752.50
2023-05-07T21:52:49.724Z,98752.84
2023-05-07T21:55:20.210Z,98754.13
2023-05-07T21:58:01.244Z,98747.16
2023-05-07T22:00:32.771Z,98758.22
2023-05-07T22:03:00.287Z,98754.34
2023-05-07T22:05:27.700Z,98757.88
2023-05-07T22:07:54.744Z,98755.41
2023-05-07T22:10:22.945Z,98765.16
2023-05-07T22:12:50.492Z,98758.09
2023-05-07T22:15:18.418Z,98764.34
2023-05-07T22:17:45.804Z,98760.84
2023-05-07T22:20:13.403Z,98757.50
2023-05-07T22:22:53.183Z,98766.41
2023-05-07T22:25:24.023Z,98773.38
2023-05-07T22:27:51.544Z,98771.81
2023-05-07T22:30:19.092Z,98769.41
2023-05-07T22:32:46.195Z,98772.81
2023-05-07T22:35:13.402Z,98776.75
2023-05-07T22:37:40.675Z,98774.69
2023-05-07T22:40:08.412Z,98763.41
2023-05-07T22:42:35.624Z,98772.84
2023-05-07T22:45:03.259Z,98772.63
2023-05-07T22:47:33.566Z,98778.31
2023-05-07T22:50:01.458Z,98784.88
2023-05-07T22:52:29.366Z,98777.88
2023-05-07T22:54:56.324Z,98774.47
2023-05-07T22:57:23.464Z,98776.97
2023-05-07T22:59:54.380Z,98782.19
2023-05-07T23:02:22.068Z,98792.50
2023-05-07T23:04:50.057Z,98787.00
2023-05-07T23:07:17.038Z,98785.09
2023-05-07T23:09:44.437Z,98788.94
2023-05-07T23:12:12.033Z,98786.44
2023-05-07T23:14:39.454Z,98786.53
2023-05-07T23:17:06.683Z,98789.19
2023-05-07T23:19:34.298Z,98785.63
2023-05-07T23:22:01.759Z,98786.31
2023-05-07T23:24:28.744Z,98794.53
2023-05-07T23:26:56.081Z,98784.66
2023-05-07T23:29:23.614Z,98784.00
2023-05-07T23:31:51.227Z,98792.00
2023-05-07T23:34:23.942Z,98781.59
2023-05-07T23:36:51.642Z,98782.28
2023-05-07T23:39:19.136Z,98786.78
2023-05-07T23:41:46.511Z,98790.69
2023-05-07T23:44:16.119Z,98781.59
2023-05-07T23:46:44.245Z,98775.50
2023-05-07T23:49:11.475Z,98787.38
2023-05-07T23:51:38.622Z,98785.94
2023-05-07T23:54:06.748Z,98790.38
2023-05-07T23:56:34.163Z,98779.09
2023-05-07T23:59:01.393Z,98782.78
